Terminal Aerodrome Forecast
Issued by NWS

Home | Current Version | Previous Version | Text Only | Print | Product List | Glossary On
Versions: 1 2 3 4 5 6 7 8 9 10 11 12 13 14 15 16 17 18 19 20 21
000
FTUS41 KOKX 272300
TAFHPN
TAF
KHPN 272327Z 2800/2824 19005KT P6SM FEW050 BKN250
     FM280400 16005KT P6SM VCSH SCT015 BKN040 OVC080
      TEMPO 2805/2808 4SM +TSRA BKN015CB
     FM281200 24009KT P6SM FEW020 BKN050
     FM281700 30014G22KT P6SM SCT050
      AMD NOT SKED=

USA.gov is the U.S. government's official web portal to all federal, state and local government web resources and services.